createdAt,value
2022-08-11T00:01:29.936Z,56.82
2022-08-11T00:04:05.130Z,56.62
2022-08-11T00:06:35.913Z,57.34
2022-08-11T00:09:06.396Z,57.49
2022-08-11T00:11:40.156Z,57.99
2022-08-11T00:14:37.327Z,59.27
2022-08-11T00:17:11.411Z,59.30
2022-08-11T00:20:14.171Z,59.40
2022-08-11T00:22:33.426Z,59.67
2022-08-11T00:25:22.220Z,59.66
2022-08-11T00:27:50.449Z,59.71
2022-08-11T00:30:17.887Z,59.83
2022-08-11T00:32:55.401Z,59.83
2022-08-11T00:35:51.588Z,60.11
2022-08-11T00:38:17.595Z,59.66
2022-08-11T00:41:11.657Z,58.78
2022-08-11T00:43:48.561Z,58.58
2022-08-11T00:46:26.036Z,59.25
2022-08-11T00:49:12.247Z,58.70
2022-08-11T00:52:04.909Z,58.20
2022-08-11T00:54:42.282Z,58.17
2022-08-11T00:57:37.573Z,58.55
2022-08-11T01:00:21.625Z,58.26
2022-08-11T01:03:13.582Z,58.21
2022-08-11T01:05:59.925Z,58.06
2022-08-11T01:09:09.808Z,57.50
2022-08-11T01:12:20.485Z,58.16
2022-08-11T01:15:07.644Z,57.95
2022-08-11T01:18:18.170Z,57.64
2022-08-11T01:21:00.080Z,57.45
2022-08-11T01:23:55.147Z,57.45
2022-08-11T01:26:57.072Z,58.00
2022-08-11T01:29:49.395Z,58.29
2022-08-11T01:32:40.916Z,58.59
2022-08-11T01:35:27.033Z,58.85
2022-08-11T01:38:12.725Z,60.04
2022-08-11T01:40:42.907Z,58.40
2022-08-11T01:43:37.161Z,58.97
2022-08-11T01:46:21.947Z,59.80
2022-08-11T01:50:06.392Z,59.44
2022-08-11T01:52:10.533Z,59.55
2022-08-11T01:54:46.690Z,59.35
2022-08-11T01:57:23.342Z,59.68
2022-08-11T01:59:52.129Z,60.07
2022-08-11T02:02:44.123Z,59.76
2022-08-11T02:05:50.027Z,60.51
2022-08-11T02:08:33.440Z,60.08
2022-08-11T02:11:22.446Z,60.16
2022-08-11T02:14:13.709Z,60.86
2022-08-11T02:16:47.126Z,60.49
2022-08-11T02:19:36.386Z,60.46
2022-08-11T02:22:32.581Z,60.72
2022-08-11T02:25:11.477Z,60.37
2022-08-11T02:27:53.622Z,60.34
2022-08-11T02:30:26.019Z,60.62
2022-08-11T02:33:21.002Z,60.51
2022-08-11T02:36:12.816Z,60.46
2022-08-11T02:39:11.845Z,61.07
2022-08-11T02:42:32.892Z,60.81
2022-08-11T02:45:30.240Z,60.67
2022-08-11T02:48:39.838Z,60.66
2022-08-11T02:51:31.770Z,60.76
2022-08-11T02:54:26.744Z,60.81
2022-08-11T02:57:16.962Z,60.82
2022-08-11T03:00:08.108Z,60.96
2022-08-11T03:02:43.041Z,60.77
2022-08-11T03:05:12.345Z,60.94
2022-08-11T03:08:03.401Z,60.91
2022-08-11T03:11:09.800Z,61.05
2022-08-11T03:14:05.004Z,60.89
2022-08-11T03:16:47.239Z,60.90
2022-08-11T03:19:17.300Z,61.06
2022-08-11T03:22:12.135Z,61.02
2022-08-11T03:24:57.899Z,60.95
2022-08-11T03:27:40.615Z,60.94
2022-08-11T03:30:16.546Z,60.90
2022-08-11T03:33:17.819Z,60.78
2022-08-11T03:36:20.319Z,60.70
2022-08-11T03:39:09.490Z,60.70
2022-08-11T03:42:01.646Z,60.15
2022-08-11T03:44:42.911Z,60.14
2022-08-11T03:47:26.666Z,60.08
2022-08-11T03:50:25.353Z,60.24
2022-08-11T03:53:17.321Z,59.88
2022-08-11T03:56:03.939Z,60.08
2022-08-11T03:59:08.790Z,60.04
2022-08-11T04:01:51.216Z,59.77
2022-08-11T04:04:36.663Z,59.69
2022-08-11T04:07:06.256Z,60.13
2022-08-11T04:09:54.394Z,59.74
2022-08-11T04:12:36.507Z,59.63
2022-08-11T04:15:50.478Z,59.25
2022-08-11T04:18:30.598Z,59.18
2022-08-11T04:21:25.329Z,59.07
2022-08-11T04:24:39.531Z,59.20
2022-08-11T04:27:53.740Z,59.11
2022-08-11T04:30:58.401Z,58.98
2022-08-11T04:33:52.146Z,58.92
2022-08-11T04:37:10.746Z,58.90
2022-08-11T04:40:01.046Z,58.30
2022-08-11T04:43:19.822Z,57.85
2022-08-11T04:46:31.406Z,58.03
2022-08-11T04:49:48.460Z,57.77
2022-08-11T04:53:07.885Z,57.60
2022-08-11T04:56:16.164Z,57.28
2022-08-11T04:59:15.804Z,57.41
2022-08-11T05:02:17.673Z,57.04
2022-08-11T05:05:25.290Z,56.72
2022-08-11T05:08:38.719Z,56.98
2022-08-11T05:11:24.462Z,56.52
2022-08-11T05:14:37.605Z,56.27
2022-08-11T05:17:29.970Z,56.38
2022-08-11T05:20:15.890Z,56.39
2022-08-11T05:23:08.436Z,56.03
2022-08-11T05:26:44.141Z,56.22
2022-08-11T05:29:19.398Z,56.01
2022-08-11T05:32:17.976Z,55.36
2022-08-11T05:34:54.431Z,55.09
2022-08-11T05:37:34.843Z,54.68
2022-08-11T05:40:34.289Z,53.29
2022-08-11T05:43:32.570Z,52.53
2022-08-11T05:46:20.583Z,52.96
2022-08-11T05:49:08.134Z,53.00
2022-08-11T05:52:05.406Z,52.35
2022-08-11T05:55:06.913Z,52.17
2022-08-11T05:57:48.962Z,51.60
2022-08-11T06:00:20.828Z,51.28
2022-08-11T06:02:57.480Z,51.12
2022-08-11T06:05:43.449Z,50.68
2022-08-11T06:08:13.628Z,50.84
2022-08-11T06:10:43.566Z,50.83
2022-08-11T06:13:14.982Z,50.36
2022-08-11T06:15:49.678Z,50.06
2022-08-11T06:18:18.086Z,49.75
2022-08-11T06:20:51.217Z,49.49
2022-08-11T06:23:23.196Z,48.90
2022-08-11T06:25:56.482Z,48.33
2022-08-11T06:28:45.265Z,47.53
2022-08-11T06:31:26.571Z,47.38
2022-08-11T06:34:06.272Z,47.02
2022-08-11T06:36:44.991Z,46.35
2022-08-11T06:39:39.455Z,46.24
2022-08-11T06:42:14.489Z,46.14
2022-08-11T06:45:01.925Z,45.51
2022-08-11T06:47:29.431Z,45.21
2022-08-11T06:50:18.029Z,44.94
2022-08-11T06:52:47.286Z,45.27
2022-08-11T06:55:57.979Z,44.74
2022-08-11T06:58:49.205Z,44.41
2022-08-11T07:01:27.977Z,44.62
2022-08-11T07:04:07.031Z,44.76
2022-08-11T07:07:17.631Z,43.57
2022-08-11T07:10:23.269Z,41.64
2022-08-11T07:13:45.088Z,42.49
2022-08-11T07:16:10.694Z,42.41
2022-08-11T07:19:00.782Z,42.02
2022-08-11T07:22:02.527Z,41.39
2022-08-11T07:24:59.400Z,40.78
2022-08-11T07:27:57.485Z,40.69
2022-08-11T07:30:25.915Z,41.27
2022-08-11T07:32:58.398Z,40.75
2022-08-11T07:35:48.780Z,40.06
2022-08-11T07:38:43.568Z,39.92
2022-08-11T07:41:16.438Z,40.31
2022-08-11T07:43:50.011Z,39.77
2022-08-11T07:46:37.073Z,40.04
2022-08-11T07:49:23.015Z,38.53
2022-08-11T07:52:09.535Z,39.78
2022-08-11T07:54:38.278Z,39.00
2022-08-11T07:57:47.333Z,39.17
2022-08-11T08:00:34.344Z,39.49
2022-08-11T08:03:21.291Z,38.82
2022-08-11T08:06:28.515Z,38.36
2022-08-11T08:09:15.405Z,38.19
2022-08-11T08:12:03.112Z,38.00
2022-08-11T08:14:50.558Z,37.38
2022-08-11T08:17:37.430Z,37.31
2022-08-11T08:20:07.631Z,37.05
2022-08-11T08:22:39.206Z,36.66
2022-08-11T08:25:08.778Z,36.55
2022-08-11T08:27:38.453Z,36.17
2022-08-11T08:30:25.884Z,36.19
2022-08-11T08:32:53.872Z,36.03
2022-08-11T08:35:21.882Z,35.55
2022-08-11T08:37:52.814Z,35.33
2022-08-11T08:40:20.049Z,35.09
2022-08-11T08:42:55.425Z,34.40
2022-08-11T08:45:24.915Z,34.73
2022-08-11T08:47:59.577Z,34.75
2022-08-11T08:50:52.047Z,34.30
2022-08-11T08:53:29.722Z,34.42
2022-08-11T08:56:00.753Z,33.92
2022-08-11T08:58:29.723Z,33.70
2022-08-11T09:00:58.623Z,33.42
2022-08-11T09:04:06.631Z,33.59
2022-08-11T09:07:11.590Z,32.87
2022-08-11T09:10:07.073Z,33.33
2022-08-11T09:12:38.908Z,32.96
2022-08-11T09:15:10.453Z,32.85
2022-08-11T09:17:46.084Z,32.41
2022-08-11T09:20:20.713Z,32.46
2022-08-11T09:26:17.228Z,32.58
2022-08-11T09:28:47.136Z,32.60
2022-08-11T09:31:16.077Z,32.15
2022-08-11T09:33:44.787Z,32.07
2022-08-11T09:36:32.034Z,32.08
2022-08-11T09:39:19.670Z,31.42
2022-08-11T09:42:00.758Z,31.34
2022-08-11T09:44:49.982Z,31.25
2022-08-11T09:47:28.180Z,30.87
2022-08-11T09:50:02.811Z,30.59
2022-08-11T09:52:38.140Z,30.70
2022-08-11T09:55:11.373Z,30.83
2022-08-11T09:58:05.580Z,30.70
2022-08-11T10:00:40.327Z,30.96
2022-08-11T10:03:30.548Z,30.24
2022-08-11T10:06:20.173Z,30.46
2022-08-11T10:09:01.045Z,30.61
2022-08-11T10:11:29.101Z,29.97
2022-08-11T10:14:33.428Z,30.41
2022-08-11T10:17:06.946Z,29.45
2022-08-11T10:19:37.259Z,29.12
2022-08-11T10:22:27.557Z,28.62
2022-08-11T10:25:15.607Z,28.95
2022-08-11T10:28:30.740Z,28.90
2022-08-11T10:31:06.839Z,28.33
2022-08-11T10:34:00.578Z,28.97
2022-08-11T10:36:34.465Z,28.96
2022-08-11T10:39:04.554Z,28.83
2022-08-11T10:42:06.613Z,28.52
2022-08-11T10:44:45.869Z,28.42
2022-08-11T10:47:33.388Z,28.64
2022-08-11T10:50:26.154Z,28.67
2022-08-11T10:53:12.788Z,28.62
2022-08-11T10:56:01.896Z,28.37
2022-08-11T10:58:48.535Z,28.69
2022-08-11T11:01:24.554Z,28.08
2022-08-11T11:03:54.808Z,28.07
2022-08-11T11:06:29.882Z,27.23
2022-08-11T11:09:24.286Z,26.90
2022-08-11T11:12:30.158Z,27.35
2022-08-11T11:15:17.475Z,27.88
2022-08-11T11:17:57.746Z,27.59
2022-08-11T11:20:40.749Z,27.80
2022-08-11T11:23:27.136Z,27.61
2022-08-11T11:26:27.298Z,27.71
2022-08-11T11:29:03.954Z,28.32
2022-08-11T11:31:34.670Z,28.01
2022-08-11T11:34:12.247Z,27.83
2022-08-11T11:36:57.720Z,27.28
2022-08-11T11:39:27.956Z,27.55
2022-08-11T11:41:57.517Z,27.82
2022-08-11T11:44:25.670Z,27.65
2022-08-11T11:46:53.177Z,27.43
2022-08-11T11:51:58.920Z,26.88
2022-08-11T11:54:30.203Z,26.73
2022-08-11T11:57:20.125Z,26.73
2022-08-11T12:00:08.928Z,26.33
2022-08-11T12:02:40.958Z,26.37
2022-08-11T12:05:10.449Z,26.50
2022-08-11T12:08:10.339Z,26.30
2022-08-11T12:10:43.699Z,25.95
2022-08-11T12:13:30.548Z,25.97
2022-08-11T12:16:34.807Z,25.59
2022-08-11T12:18:54.687Z,25.24
2022-08-11T12:21:23.136Z,25.01
2022-08-11T12:24:09.403Z,24.74
2022-08-11T12:27:15.039Z,24.88
2022-08-11T12:29:43.821Z,23.96
2022-08-11T12:32:12.027Z,23.86
2022-08-11T12:34:39.203Z,23.73
2022-08-11T12:37:13.249Z,23.33
2022-08-11T12:40:16.909Z,22.54
2022-08-11T12:43:21.204Z,23.31
2022-08-11T12:45:54.386Z,23.50
2022-08-11T12:49:00.493Z,23.26
2022-08-11T12:52:10.904Z,22.46
2022-08-11T12:55:07.511Z,22.75
2022-08-11T12:58:05.828Z,23.15
2022-08-11T13:00:52.414Z,23.44
2022-08-11T13:03:39.890Z,22.73
2022-08-11T13:06:08.132Z,22.56
2022-08-11T13:08:41.215Z,22.56
2022-08-11T13:11:54.542Z,22.31
2022-08-11T13:14:17.240Z,21.93
2022-08-11T13:17:04.162Z,22.13
2022-08-11T13:19:32.661Z,22.76
2022-08-11T13:22:01.193Z,22.81
2022-08-11T13:24:30.409Z,23.40
2022-08-11T13:26:58.548Z,23.55
2022-08-11T13:29:28.988Z,23.44
2022-08-11T13:32:01.876Z,23.72
2022-08-11T13:34:35.396Z,23.51
2022-08-11T13:37:06.093Z,24.45
2022-08-11T13:39:35.533Z,24.34
2022-08-11T13:42:04.565Z,24.58
2022-08-11T13:44:36.908Z,24.25
2022-08-11T13:47:07.152Z,24.63
2022-08-11T13:49:40.495Z,25.01
2022-08-11T13:52:16.509Z,23.84
2022-08-11T13:54:46.857Z,23.81
2022-08-11T13:58:08.755Z,23.52
2022-08-11T14:00:14.550Z,23.72
2022-08-11T14:02:57.233Z,23.96
2022-08-11T14:05:46.889Z,23.65
2022-08-11T14:08:38.188Z,23.83
2022-08-11T14:12:21.750Z,24.76
2022-08-11T14:14:21.492Z,25.21
2022-08-11T14:16:51.619Z,25.35
2022-08-11T14:19:22.894Z,25.50
2022-08-11T14:22:11.151Z,25.80
2022-08-11T14:24:49.532Z,25.67
2022-08-11T14:28:31.984Z,25.72
2022-08-11T14:30:26.487Z,25.58
2022-08-11T14:32:56.106Z,26.22
2022-08-11T14:35:25.896Z,26.08
2022-08-11T14:37:54.251Z,26.04
2022-08-11T14:40:40.127Z,26.53
2022-08-11T14:44:12.885Z,27.11
2022-08-11T14:49:05.531Z,28.13
2022-08-11T14:51:34.557Z,28.23
2022-08-11T14:54:20.756Z,28.91
2022-08-11T14:56:48.677Z,28.70
2022-08-11T14:59:16.109Z,29.08
2022-08-11T15:02:03.435Z,29.06
2022-08-11T15:04:35.931Z,29.05
2022-08-11T15:07:04.808Z,29.09
2022-08-11T15:12:35.224Z,28.97
2022-08-11T15:15:23.693Z,28.93
2022-08-11T15:17:57.563Z,28.62
2022-08-11T15:20:46.313Z,28.78
2022-08-11T15:23:33.097Z,27.74
2022-08-11T15:26:20.523Z,27.20
2022-08-11T15:29:09.381Z,27.49
2022-08-11T15:31:44.325Z,27.42
2022-08-11T15:34:44.407Z,27.60
2022-08-11T15:37:27.194Z,28.25
2022-08-11T15:40:31.463Z,28.45
2022-08-11T15:43:33.660Z,29.33
2022-08-11T15:46:07.685Z,29.85
2022-08-11T15:49:02.883Z,29.71
2022-08-11T15:51:41.750Z,29.78
2022-08-11T15:54:16.321Z,30.25
2022-08-11T15:56:48.321Z,30.82
2022-08-11T15:59:41.930Z,30.53
2022-08-11T16:02:18.030Z,30.77
2022-08-11T16:04:47.794Z,31.49
2022-08-11T16:07:26.706Z,31.49
2022-08-11T16:10:02.761Z,32.13
2022-08-11T16:12:35.651Z,32.00
2022-08-11T16:15:26.330Z,32.29
2022-08-11T16:18:00.513Z,32.43
2022-08-11T16:20:30.066Z,32.60
2022-08-11T16:23:03.058Z,32.80
2022-08-11T16:27:02.836Z,32.62
2022-08-11T16:28:25.477Z,33.11
2022-08-11T16:30:55.004Z,33.07
2022-08-11T16:33:51.349Z,33.33
2022-08-11T16:36:33.517Z,33.70
2022-08-11T16:39:01.820Z,33.73
2022-08-11T16:41:50.994Z,33.52
2022-08-11T16:44:39.674Z,33.86
2022-08-11T16:47:53.878Z,34.15
2022-08-11T16:50:09.423Z,33.90
2022-08-11T16:52:37.221Z,34.25
2022-08-11T16:55:05.936Z,34.16
2022-08-11T16:57:54.567Z,34.03
2022-08-11T17:00:23.552Z,34.33
2022-08-11T17:03:11.612Z,34.41
2022-08-11T17:06:11.257Z,33.69
2022-08-11T17:09:08.539Z,32.54
2022-08-11T17:12:21.272Z,32.73
2022-08-11T17:14:58.298Z,33.21
2022-08-11T17:17:30.454Z,32.94
2022-08-11T17:20:38.569Z,31.90
2022-08-11T17:23:13.164Z,31.37
2022-08-11T17:26:04.049Z,31.28
2022-08-11T17:28:32.089Z,31.30
2022-08-11T17:31:22.684Z,31.20
2022-08-11T17:34:11.243Z,31.06
2022-08-11T17:36:44.532Z,31.33
2022-08-11T17:39:14.523Z,31.41
2022-08-11T17:42:01.839Z,31.33
2022-08-11T17:44:51.146Z,31.24
2022-08-11T17:47:38.528Z,31.03
2022-08-11T17:50:17.109Z,31.50
2022-08-11T17:53:05.427Z,31.60
2022-08-11T17:55:53.875Z,31.41
2022-08-11T17:58:41.718Z,31.07
2022-08-11T18:01:11.416Z,31.57
2022-08-11T18:03:40.923Z,31.19
2022-08-11T18:06:12.745Z,31.73
2022-08-11T18:09:04.512Z,31.67
2022-08-11T18:12:11.240Z,31.64
2022-08-11T18:15:02.802Z,31.76
2022-08-11T18:17:49.054Z,31.80
2022-08-11T18:20:35.858Z,32.10
2022-08-11T18:23:46.546Z,31.80
2022-08-11T18:26:32.314Z,32.00
2022-08-11T18:29:21.226Z,32.95
2022-08-11T18:32:09.607Z,33.83
2022-08-11T18:35:00.767Z,33.95
2022-08-11T18:37:51.291Z,34.50
2022-08-11T18:40:45.005Z,34.58
2022-08-11T18:43:33.714Z,34.69
2022-08-11T18:46:26.907Z,34.63
2022-08-11T18:49:21.102Z,35.13
2022-08-11T18:52:12.995Z,35.03
2022-08-11T18:55:01.914Z,34.80
2022-08-11T18:57:54.124Z,35.57
2022-08-11T19:00:45.237Z,35.86
2022-08-11T19:03:43.321Z,35.88
2022-08-11T19:06:41.051Z,35.80
2022-08-11T19:09:31.971Z,36.46
2022-08-11T19:12:20.300Z,36.66
2022-08-11T19:15:09.714Z,36.47
2022-08-11T19:18:00.324Z,36.28
2022-08-11T19:20:49.834Z,36.45
2022-08-11T19:23:39.704Z,36.55
2022-08-11T19:26:28.023Z,36.40
2022-08-11T19:30:07.091Z,36.22
2022-08-11T19:32:24.024Z,36.68
2022-08-11T19:35:11.177Z,36.42
2022-08-11T19:37:59.733Z,36.68
2022-08-11T19:40:47.692Z,37.14
2022-08-11T19:43:37.133Z,37.39
2022-08-11T19:46:27.129Z,37.05
2022-08-11T19:49:15.867Z,37.06
2022-08-11T19:52:03.548Z,37.54
2022-08-11T19:54:52.919Z,37.36
2022-08-11T19:57:42.462Z,37.45
2022-08-11T20:00:34.138Z,37.98
2022-08-11T20:03:22.556Z,38.03
2022-08-11T20:06:09.621Z,38.04
2022-08-11T20:08:59.262Z,38.34
2022-08-11T20:11:50.455Z,38.26
2022-08-11T20:14:40.163Z,38.53
2022-08-11T20:17:28.290Z,38.65
2022-08-11T20:20:17.161Z,38.75
2022-08-11T20:23:05.333Z,38.68
2022-08-11T20:25:55.801Z,38.60
2022-08-11T20:28:51.595Z,38.69
2022-08-11T20:31:41.760Z,38.97
2022-08-11T20:34:28.280Z,38.86
2022-08-11T20:37:15.453Z,38.89
2022-08-11T20:40:03.658Z,39.30
2022-08-11T20:42:52.492Z,39.48
2022-08-11T20:48:49.488Z,39.48
2022-08-11T20:51:38.806Z,39.72
2022-08-11T20:54:38.423Z,39.95
2022-08-11T20:57:54.572Z,40.04
2022-08-11T21:00:41.493Z,40.41
2022-08-11T21:06:37.531Z,40.24
2022-08-11T21:09:58.866Z,40.18
2022-08-11T21:12:35.779Z,40.17
2022-08-11T21:15:47.514Z,39.70
2022-08-11T21:18:35.353Z,39.20
2022-08-11T21:21:25.717Z,38.94
2022-08-11T21:24:13.244Z,38.95
2022-08-11T21:27:06.697Z,39.12
2022-08-11T21:29:55.111Z,39.29
2022-08-11T21:32:43.356Z,39.43
2022-08-11T21:35:30.859Z,39.59
2022-08-11T21:38:17.463Z,39.48
2022-08-11T21:41:05.891Z,39.36
2022-08-11T21:43:53.536Z,39.47
2022-08-11T21:46:41.306Z,39.01
2022-08-11T21:49:28.942Z,39.18
2022-08-11T21:52:15.355Z,39.22
2022-08-11T21:55:02.435Z,39.12
2022-08-11T21:57:50.699Z,39.04
2022-08-11T22:00:37.104Z,39.00
2022-08-11T22:03:24.615Z,38.96
2022-08-11T22:06:12.718Z,39.35
2022-08-11T22:08:58.670Z,39.15
2022-08-11T22:11:44.684Z,39.05
2022-08-11T22:14:32.511Z,39.48
2022-08-11T22:17:20.553Z,39.65
2022-08-11T22:20:08.022Z,39.52
2022-08-11T22:22:56.240Z,39.64
2022-08-11T22:25:53.772Z,39.91
2022-08-11T22:28:41.711Z,40.05
2022-08-11T22:31:32.363Z,40.30
2022-08-11T22:34:18.627Z,40.20
2022-08-11T22:37:07.297Z,40.54
2022-08-11T22:40:00.740Z,40.62
2022-08-11T22:42:53.465Z,41.21
2022-08-11T22:45:40.068Z,41.25
2022-08-11T22:48:28.528Z,41.61
2022-08-11T22:51:14.225Z,41.52
2022-08-11T22:54:01.567Z,42.04
2022-08-11T22:56:49.584Z,42.10
2022-08-11T22:59:38.712Z,42.45
2022-08-11T23:02:25.999Z,42.63
2022-08-11T23:05:13.955Z,42.81
2022-08-11T23:08:00.620Z,43.45
2022-08-11T23:10:47.761Z,43.96
2022-08-11T23:13:34.167Z,44.43
2022-08-11T23:16:21.329Z,43.81
2022-08-11T23:19:08.174Z,43.88
2022-08-11T23:21:55.134Z,44.06
2022-08-11T23:24:43.224Z,44.38
2022-08-11T23:27:30.873Z,44.34
2022-08-11T23:30:19.226Z,44.36
2022-08-11T23:33:10.646Z,44.32
2022-08-11T23:36:03.561Z,44.78
2022-08-11T23:38:52.342Z,44.93
2022-08-11T23:41:39.235Z,45.12
2022-08-11T23:44:26.993Z,45.03
2022-08-11T23:47:14.920Z,45.29
2022-08-11T23:50:01.617Z,45.10
2022-08-11T23:52:49.030Z,45.15
2022-08-11T23:55:40.656Z,45.35
2022-08-11T23:58:27.280Z,45.58
